Latest Weather Observations for Casino

IDN60801

Issued at 9:35 am EDT Friday 28 November 2014 (issued every 30 minutes, with the page automatically refreshed every 10 minutes)

About weather observations | Map of weather stations | Latest weather observations for NSW | Other Formats
Station Details ID: 058208 Name: CASINO AIRPORT AWS Lat: -28.88 Lon: 153.06 Height: 20.9 m
Data from the previous 72 hours. | See also: Recent months at Casino
Date/Time
EDT
Temp
°C
App
Temp
°C
Dew
Point
Rel
Hum
%
Delta-T
°C
Wind Press
QNH
hPa
Press
MSL
hPa
Rain
since 9 am
mm
Dir
 
Spd
km/h
Gust
km/h
Spd
kts
Gust
kts
28/09:30am 21.2 22.0 17.4 79 2.3 S 9 13 5 7 1020.9 1020.8 0.0
28/09:00am 20.0 19.9 17.0 83 1.8 SSW 13 17 7 9 1020.8 1020.7 5.4
28/08:30am 19.2 20.1 17.5 90 1.0 SW 9 13 5 7 1020.7 1020.6 5.4
28/08:00am 18.5 18.9 17.2 92 0.8 SW 11 17 6 9 1020.6 1020.5 5.4
28/07:30am 18.1 18.4 16.9 93 0.7 SSW 11 15 6 8 1020.4 1020.3 5.2
28/07:00am 18.1 17.2 16.8 92 0.8 S 17 22 9 12 1020.1 1020.0 3.2
28/06:30am 18.4 17.2 16.0 86 1.4 S 17 20 9 11 1019.8 1019.7 0.6
28/06:00am 19.7 18.7 15.6 77 2.4 SSW 15 20 8 11 1019.3 1019.2 0.2
28/05:30am 19.6 18.6 15.5 77 2.4 SSW 15 20 8 11 1019.0 1018.9 0.2
28/05:00am 19.9 19.4 16.0 78 2.3 SSW 13 20 7 11 1018.6 1018.5 0.2
28/04:30am 19.9 19.2 16.3 80 2.2 SSW 15 20 8 11 1018.4 1018.3 0.2
28/04:00am 19.7 19.4 16.5 82 1.9 SSW 13 19 7 10 1018.2 1018.1 0.2
28/03:30am 19.7 19.1 16.7 83 1.8 SSW 15 20 8 11 1018.4 1018.3 0.2
28/03:00am 19.6 19.5 17.0 85 1.6 SSW 13 17 7 9 1018.7 1018.6 0.2
28/02:30am 19.5 19.8 17.1 86 1.5 SSW 11 17 6 9 1018.9 1018.8 0.2
28/02:00am 19.5 19.5 17.1 86 1.5 S 13 19 7 10 1019.0 1018.9 0.2
28/01:30am 19.9 20.0 17.5 86 1.5 S 13 19 7 10 1019.2 1019.1 0.2
28/01:00am 19.8 19.5 17.4 86 1.5 S 15 24 8 13 1019.3 1019.2 0.2
28/12:30am 20.0 19.7 17.4 85 1.6 SSW 15 22 8 12 1019.6 1019.5 0.2
28/12:00am 20.0 19.7 17.4 85 1.6 SSW 15 22 8 12 1019.8 1019.7 0.0
 
Date/Time
EDT
Temp
°C
App
Temp
°C
Dew
Point
Rel
Hum
%
Delta-T
°C
Wind Press
QNH
hPa
Press
MSL
hPa
Rain
since 9 am
mm
Dir
 
Spd
km/h
Gust
km/h
Spd
kts
Gust
kts
27/11:30pm 20.3 20.4 17.5 84 1.7 SSW 13 19 7 10 1019.9 1019.8 0.0
27/11:00pm 20.7 20.5 17.5 82 2.0 SSW 15 24 8 13 1019.7 1019.6 0.0
27/10:30pm 21.2 20.2 17.6 80 2.2 S 19 26 10 14 1019.6 1019.5 0.0
27/10:00pm 22.0 21.7 17.4 75 2.8 SSE 15 22 8 12 1019.4 1019.3 0.0
27/09:30pm 22.2 21.9 17.3 74 3.0 SSE 15 22 8 12 1019.2 1019.1 0.0
27/09:00pm 22.6 22.6 17.3 72 3.3 SSE 13 26 7 14 1019.0 1018.9 0.0
27/08:30pm 22.6 21.9 17.3 72 3.3 SSE 17 28 9 15 1018.6 1018.5 0.0
27/08:00pm 23.1 22.1 17.6 71 3.4 SSE 19 26 10 14 1018.3 1018.2 0.0
27/07:30pm 23.4 22.9 17.8 71 3.5 SSE 17 28 9 15 1018.1 1018.0 0.0
27/07:00pm 23.9 23.3 17.6 68 3.9 S 17 26 9 14 1017.8 1017.7 0.0
27/06:30pm 23.9 23.8 17.9 69 3.8 S 15 22 8 12 1017.5 1017.4 0.0
27/06:00pm 23.9 23.3 17.6 68 3.9 SSE 17 28 9 15 1016.8 1016.7 0.0
27/05:30pm 24.0 22.9 17.7 68 3.9 SSE 20 32 11 17 1016.1 1016.0 0.0
27/05:00pm 24.5 23.4 17.7 66 4.2 SSE 20 33 11 18 1015.6 1015.5 0.0
27/04:46pm 24.8 22.1 17.5 64 4.6 SE 28 39 15 21 1015.5 1015.4 0.0
27/04:30pm 24.8 24.5 18.3 67 4.1 SE 17 20 9 11 1015.7 1015.6 0.0
27/04:00pm 25.4 22.7 17.6 62 4.9 SE 28 39 15 21 1014.8 1014.7 0.0
27/03:30pm 26.4 23.0 17.7 58 5.5 ESE 32 43 17 23 1014.3 1014.2 0.0
27/03:00pm 28.2 24.4 16.8 50 7.1 SE 32 43 17 23 1014.5 1014.4 0.0
27/02:30pm 28.3 24.3 17.5 52 6.8 ESE 35 46 19 25 1014.4 1014.3 0.0
27/02:00pm 28.5 26.9 20.8 63 5.1 ESE 30 43 16 23 1014.6 1014.5 0.0
27/01:30pm 29.8 28.0 19.5 54 6.7 ESE 28 37 15 20 1014.5 1014.4 0.0
27/01:00pm 29.8 27.5 17.6 48 7.8 ESE 26 39 14 21 1014.6 1014.5 0.0
27/12:30pm 31.1 31.9 18.1 46 8.4 SE 11 19 6 10 1014.8 1014.7 0.0
27/12:00pm 30.3 30.5 17.7 46 8.0 S 13 20 7 11 1015.2 1015.1 0.0
27/11:30am 29.8 30.7 17.6 48 7.8 W 9 13 5 7 1015.5 1015.4 0.0
27/11:00am 29.7 30.9 18.2 50 7.4 NNW 9 19 5 10 1015.8 1015.7 0.0
27/10:30am 27.6 28.5 17.5 54 6.4 W 9 15 5 8 1015.9 1015.8 0.0
27/10:00am 28.1 29.2 18.8 57 6.0 NNW 11 15 6 8 1016.1 1016.0 0.0
27/09:30am 27.6 28.4 19.1 59 5.5 NNW 13 17 7 9 1016.2 1016.1 0.0
27/09:00am 25.9 26.3 19.1 66 4.4 NNW 15 20 8 11 1016.3 1016.2 0.2
27/08:30am 24.4 24.7 18.8 71 3.6 NNW 15 22 8 12 1016.4 1016.3 0.2
27/08:00am 22.9 24.7 19.5 81 2.2 NNW 9 11 5 6 1016.3 1016.2 0.2
27/07:30am 21.5 22.8 19.2 87 1.5 NNW 11 15 6 8 1016.2 1016.1 0.2
27/07:00am 20.5 23.5 19.3 93 0.8 W 2 9 1 5 1016.0 1015.9 0.2
27/06:30am 19.8 22.9 18.6 93 0.7 CALM 0 0 0 0 1015.5 1015.4 0.2
27/06:00am 19.4 22.3 18.2 93 0.7 CALM 0 0 0 0 1015.3 1015.2 0.2
27/05:30am 18.9 21.6 17.7 93 0.7 CALM 0 0 0 0 1015.2 1015.1 0.2
27/05:00am 18.7 21.3 17.4 92 0.8 CALM 0 6 0 3 1015.3 1015.2 0.2
27/04:30am 19.4 21.1 18.1 92 0.8 NNW 6 7 3 4 1015.0 1014.9 0.2
27/04:00am 20.3 22.8 19.1 93 0.8 NW 4 7 2 4 1015.0 1014.9 0.2
27/03:30am 20.3 22.3 19.1 93 0.8 N 7 7 4 4 1014.9 1014.8 0.2
27/03:00am 20.6 22.7 19.4 93 0.8 N 7 9 4 5 1015.0 1014.9 0.2
27/02:30am 20.6 23.6 19.3 92 0.8 N 2 7 1 4 1015.2 1015.1 0.2
27/02:00am 20.9 24.4 19.6 92 0.8 CALM 0 0 0 0 1015.6 1015.5 0.2
27/01:30am 21.3 25.0 19.9 92 0.9 CALM 0 0 0 0 1016.0 1015.9 0.2
27/01:00am 21.6 24.3 20.2 92 0.9 N 6 7 3 4 1016.3 1016.2 0.2
27/12:30am 21.5 24.1 20.1 92 0.9 WNW 6 9 3 5 1016.7 1016.6 0.2
27/12:00am 21.7 23.9 20.3 92 0.9 SW 9 11 5 6 1016.9 1016.8 0.2
 
Date/Time
EDT
Temp
°C
App
Temp
°C
Dew
Point
Rel
Hum
%
Delta-T
°C
Wind Press
QNH
hPa
Press
MSL
hPa
Rain
since 9 am
mm
Dir
 
Spd
km/h
Gust
km/h
Spd
kts
Gust
kts
26/11:30pm 21.7 24.4 20.3 92 0.9 WSW 6 7 3 4 1016.9 1016.8 0.2
26/11:00pm 21.6 22.6 20.2 92 0.9 NE 15 17 8 9 1016.6 1016.5 0.2
26/10:30pm 21.6 23.7 20.1 91 1.0 E 9 11 5 6 1017.1 1017.0 0.2
26/10:00pm 21.8 25.3 20.3 91 1.0 SW 2 13 1 7 1017.7 1017.6 0.2
26/09:30pm 21.7 24.4 20.2 91 1.0 SSW 6 9 3 5 1016.7 1016.6 0.2
26/09:00pm 21.7 24.8 20.2 91 1.0 SE 4 9 2 5 1016.6 1016.5 0.2
26/08:30pm 22.1 25.0 20.6 91 1.0 NNE 6 13 3 7 1016.7 1016.6 0.2
26/08:00pm 22.2 25.4 20.5 90 1.1 W 4 7 2 4 1017.3 1017.2 0.2
26/07:30pm 22.0 25.1 20.3 90 1.1 E 4 7 2 4 1017.2 1017.1 0.2
26/07:00pm 22.0 24.7 20.3 90 1.1 E 6 9 3 5 1016.5 1016.4 0.2
26/06:30pm 22.0 24.8 20.5 91 1.0 ENE 6 9 3 5 1016.3 1016.2 0.2
26/06:00pm 22.0 23.9 20.5 91 1.0 N 11 15 6 8 1016.5 1016.4 0.2
26/05:30pm 22.4 23.2 19.8 85 1.7 NE 15 19 8 10 1016.2 1016.1 0.0
26/05:00pm 24.1 25.3 20.0 78 2.6 S 13 20 7 11 1016.0 1015.9 0.0
26/04:30pm 24.9 25.7 19.9 74 3.2 SSW 15 20 8 11 1016.1 1016.0 0.0
26/04:00pm 25.3 26.4 19.7 71 3.6 S 13 19 7 10 1015.9 1015.8 0.0
26/03:30pm 25.7 26.8 19.6 69 3.9 S 13 20 7 11 1015.7 1015.6 0.0
26/03:00pm 25.4 25.8 19.8 71 3.6 SSW 17 24 9 13 1015.9 1015.8 0.0
26/02:30pm 25.9 26.6 20.5 72 3.5 SSW 17 20 9 11 1016.1 1016.0 0.0
26/02:00pm 25.4 26.6 20.6 75 3.1 SSW 15 22 8 12 1016.3 1016.2 0.0
26/01:30pm 24.1 24.8 20.4 80 2.4 SSW 17 24 9 13 1016.7 1016.6 0.0
26/01:00pm 25.4 25.8 19.8 71 3.6 SW 17 22 9 12 1016.9 1016.8 0.0
26/12:30pm 26.0 26.9 20.1 70 3.8 SSW 15 20 8 11 1017.1 1017.0 0.0
26/12:00pm 25.4 26.5 20.4 74 3.3 SSW 15 19 8 10 1017.4 1017.3 0.0
26/11:30am 26.4 28.5 19.3 65 4.6 SE 7 13 4 7 1017.3 1017.2 0.0
26/11:00am 26.4 28.9 20.3 69 4.0 SSE 7 11 4 6 1017.8 1017.7 0.0
26/10:30am 24.6 28.1 20.3 77 2.8 SE 2 6 1 3 1017.7 1017.6 0.0
26/10:00am 23.3 26.0 19.5 79 2.4 NE 4 9 2 5 1017.8 1017.7 0.0
26/09:30am 22.9 25.1 19.5 81 2.2 NE 7 9 4 5 1017.8 1017.7 0.0
26/09:00am 22.7 26.3 19.7 83 1.9 CALM 0 6 0 3 1017.9 1017.8 22.4
26/08:30am 22.1 24.3 19.1 83 1.9 SSW 6 7 3 4 1017.9 1017.8 22.4
26/08:00am 22.0 23.8 19.5 86 1.6 SSE 9 13 5 7 1017.7 1017.6 22.4
26/07:30am 21.2 22.2 18.6 85 1.6 SSW 11 19 6 10 1017.9 1017.8 22.4
26/07:00am 21.1 22.9 18.7 86 1.5 SSW 7 13 4 7 1017.6 1017.5 22.4
26/06:30am 21.0 22.5 18.8 87 1.4 SSW 9 13 5 7 1017.2 1017.1 22.4
26/06:00am 21.1 22.4 19.2 89 1.2 SW 11 15 6 8 1017.1 1017.0 22.4
26/05:30am 21.2 23.0 19.5 90 1.1 S 9 13 5 7 1016.8 1016.7 22.4
26/05:00am 21.3 23.2 19.8 91 1.0 SW 9 13 5 7 1016.6 1016.5 22.4
26/04:30am 21.2 24.8 19.8 92 0.9 CALM 0 0 0 0 1016.4 1016.3 22.4
26/04:00am 21.2 24.8 19.7 91 1.0 CALM 0 0 0 0 1016.3 1016.2 22.4
26/03:30am 21.1 24.5 19.4 90 1.1 CALM 0 0 0 0 1016.3 1016.2 22.4
26/03:00am 21.1 24.6 19.6 91 1.0 CALM 0 4 0 2 1016.6 1016.5 22.4
26/02:30am 21.1 24.6 19.6 91 1.0 CALM 0 0 0 0 1016.8 1016.7 22.4
26/02:00am 21.0 24.5 19.5 91 1.0 CALM 0 0 0 0 1017.0 1016.9 22.4
26/01:30am 21.1 24.6 19.6 91 1.0 CALM 0 0 0 0 1017.1 1017.0 22.4
26/01:00am 20.9 24.4 19.6 92 0.8 CALM 0 6 0 3 1017.7 1017.6 22.4
26/12:30am 20.8 23.0 19.5 92 0.8 W 7 11 4 6 1018.2 1018.1 22.2
26/12:00am 20.7 23.7 19.2 91 0.9 WSW 2 7 1 4 1018.1 1018.0 21.8
 
Date/Time
EDT
Temp
°C
App
Temp
°C
Dew
Point
Rel
Hum
%
Delta-T
°C
Wind Press
QNH
hPa
Press
MSL
hPa
Rain
since 9 am
mm
Dir
 
Spd
km/h
Gust
km/h
Spd
kts
Gust
kts
25/11:30pm 20.5 22.4 19.0 91 0.9 SW 7 11 4 6 1018.5 1018.4 21.2
25/11:00pm 20.7 22.8 19.4 92 0.8 SW 7 9 4 5 1018.7 1018.6 21.2
25/10:30pm 20.5 22.4 19.0 91 0.9 SSW 7 9 4 5 1018.5 1018.4 21.0
25/10:00pm 20.5 23.0 19.0 91 0.9 S 4 7 2 4 1018.6 1018.5 20.8
25/09:30pm 20.3 21.8 18.8 91 0.9 E 9 11 5 6 1018.4 1018.3 19.6
25/09:00pm 20.4 22.4 18.7 90 1.1 S 6 11 3 6 1018.6 1018.5 14.8
25/08:30pm 21.3 22.2 18.5 84 1.8 S 11 15 6 8 1018.2 1018.1 1.0
25/08:00pm 21.7 23.0 18.5 82 2.0 SSE 9 15 5 8 1017.3 1017.2 0.0
25/07:30pm 23.0 22.1 18.1 74 3.1 SE 20 28 11 15 1016.2 1016.1 0.0
25/07:00pm 23.4 21.2 18.7 75 3.0 SE 28 39 15 21 1015.9 1015.8 0.0
25/06:30pm 23.8 23.7 19.9 79 2.5 SSE 20 35 11 19 1015.3 1015.2 0.0
25/06:00pm 24.3 22.1 19.6 75 3.0 S 30 44 16 24 1014.2 1014.1 0.0
25/05:32pm 25.3 21.2 19.2 69 3.9 S 39 59 21 32 1013.5 1013.5 0.0
25/05:30pm 25.4 21.4 19.3 69 3.9 S 39 56 21 30 1013.7 1013.6 0.0
25/05:10pm 26.4 21.0 18.3 61 5.1 S 44 57 24 31 1012.7 1012.7 0.0
25/05:00pm 26.9 20.9 16.8 54 6.3 SSW 44 76 24 41 1012.3 1012.3 0.0
25/04:59pm 27.0 20.1 16.6 53 6.4 SSW 48 76 26 41 1012.3 1012.3 0.0
25/04:56pm 29.3 25.1 14.7 41 8.9 S 30 72 16 39 1011.8 1011.8 0.0
25/04:55pm 32.2 28.8 14.8 35 10.7 S 26 56 14 30 1011.6 1011.6 0.0
25/04:30pm 33.6 30.6 16.9 37 10.6 ESE 28 35 15 19 1010.1 1010.1 0.0
25/04:00pm 35.2 33.0 17.0 34 11.7 E 24 35 13 19 1009.4 1009.4 0.0
25/03:30pm 36.1 35.9 13.6 26 13.8 N 7 13 4 7 1009.4 1009.4 0.0
25/03:00pm 36.4 35.9 15.0 28 13.4 N 11 20 6 11 1009.9 1009.9 0.0
25/02:30pm 36.1 35.7 15.2 28 13.1 NNE 11 17 6 9 1010.3 1010.3 0.0
25/02:00pm 36.9 36.6 16.5 30 13.1 ENE 13 20 7 11 1010.5 1010.5 0.0
25/01:30pm 34.8 34.8 15.2 31 12.2 SW 9 20 5 11 1011.1 1011.1 0.0
25/01:00pm 34.9 34.7 15.7 31 12.1 W 11 19 6 10 1011.5 1011.5 0.0
25/12:30pm 35.2 35.7 16.5 33 11.9 WSW 9 13 5 7 1011.8 1011.8 0.0
25/12:00pm 33.9 33.4 15.8 33 11.4 NW 13 19 7 10 1012.1 1012.1 0.0
25/11:30am 33.7 32.4 15.7 34 11.3 NW 17 26 9 14 1012.6 1012.6 0.0
25/11:00am 33.5 32.9 17.6 38 10.2 NW 17 30 9 16 1013.0 1013.0 0.0
25/10:30am 33.0 32.2 18.4 42 9.5 NW 20 35 11 19 1013.4 1013.4 0.0
25/10:00am 31.2 29.4 17.9 45 8.5 NW 24 35 13 19 1013.7 1013.6 0.0

Other Formats:

Comma delimited format used in spreadsheet applications
http://www.bom.gov.au/fwo/IDN60801/IDN60801.94573.axf

JavaScript Object Notation format (JSON) in row-major order
http://www.bom.gov.au/fwo/IDN60801/IDN60801.94573.json